sensor_id;sensor_type;location;lat;lon;timestamp;pressure;altitude;pressure_sealevel;temperature;humidity
40920;BME280;26652;50.280;19.026;2023-05-25T00:00:11;98829.56;;;14.06;87.09
40920;BME280;26652;50.280;19.026;2023-05-25T00:02:32;98818.50;;;13.99;87.55
40920;BME280;26652;50.280;19.026;2023-05-25T00:04:33;98823.66;;;14.06;87.58
40920;BME280;26652;50.280;19.026;2023-05-25T00:06:34;98831.91;;;14.08;87.40
40920;BME280;26652;50.280;19.026;2023-05-25T00:08:38;98825.78;;;14.02;88.23
40920;BME280;26652;50.280;19.026;2023-05-25T00:10:40;98833.50;;;14.09;88.53
40920;BME280;26652;50.280;19.026;2023-05-25T00:12:40;98844.34;;;14.11;87.83
40920;BME280;26652;50.280;19.026;2023-05-25T00:14:41;98848.28;;;14.14;87.75
40920;BME280;26652;50.280;19.026;2023-05-25T00:16:42;98834.50;;;14.15;87.61
40920;BME280;26652;50.280;19.026;2023-05-25T00:18:45;98838.66;;;14.16;87.06
40920;BME280;26652;50.280;19.026;2023-05-25T00:20:47;98836.06;;;14.09;87.17
40920;BME280;26652;50.280;19.026;2023-05-25T00:22:48;98838.78;;;14.01;87.18
40920;BME280;26652;50.280;19.026;2023-05-25T00:24:49;98822.53;;;13.81;87.31
40920;BME280;26652;50.280;19.026;2023-05-25T00:26:49;98842.88;;;13.95;87.27
40920;BME280;26652;50.280;19.026;2023-05-25T00:28:50;98830.19;;;13.81;87.48
40920;BME280;26652;50.280;19.026;2023-05-25T00:30:51;98835.50;;;13.79;87.31
40920;BME280;26652;50.280;19.026;2023-05-25T00:32:52;98825.47;;;13.78;87.46
40920;BME280;26652;50.280;19.026;2023-05-25T00:34:55;98831.41;;;13.85;87.04
40920;BME280;26652;50.280;19.026;2023-05-25T00:36:55;98838.78;;;14.01;86.80
40920;BME280;26652;50.280;19.026;2023-05-25T00:38:56;98824.13;;;13.88;87.00
40920;BME280;26652;50.280;19.026;2023-05-25T00:40:57;98837.53;;;13.90;87.43
40920;BME280;26652;50.280;19.026;2023-05-25T00:42:58;98826.69;;;13.88;88.10
40920;BME280;26652;50.280;19.026;2023-05-25T00:44:58;98834.22;;;13.96;87.08
40920;BME280;26652;50.280;19.026;2023-05-25T00:47:00;98818.84;;;13.90;86.71
40920;BME280;26652;50.280;19.026;2023-05-25T00:49:03;98818.03;;;13.89;86.08
40920;BME280;26652;50.280;19.026;2023-05-25T00:51:04;98833.63;;;13.94;86.15
40920;BME280;26652;50.280;19.026;2023-05-25T00:53:06;98825.56;;;13.97;85.65
40920;BME280;26652;50.280;19.026;2023-05-25T00:55:08;98824.38;;;13.93;85.29
40920;BME280;26652;50.280;19.026;2023-05-25T00:57:12;98826.06;;;13.80;85.50
40920;BME280;26652;50.280;19.026;2023-05-25T00:59:16;98819.50;;;13.70;85.76
40920;BME280;26652;50.280;19.026;2023-05-25T01:01:21;98829.78;;;13.77;86.44
40920;BME280;26652;50.280;19.026;2023-05-25T01:03:25;98815.97;;;13.71;86.59
40920;BME280;26652;50.280;19.026;2023-05-25T01:05:30;98824.25;;;13.73;86.78
40920;BME280;26652;50.280;19.026;2023-05-25T01:07:35;98822.84;;;13.71;86.24
40920;BME280;26652;50.280;19.026;2023-05-25T01:09:38;98828.38;;;13.74;86.29
40920;BME280;26652;50.280;19.026;2023-05-25T01:11:43;98836.84;;;13.75;86.49
40920;BME280;26652;50.280;19.026;2023-05-25T01:13:44;98835.22;;;13.67;86.68
40920;BME280;26652;50.280;19.026;2023-05-25T01:15:46;98849.31;;;13.85;86.93
40920;BME280;26652;50.280;19.026;2023-05-25T01:17:48;98835.72;;;13.84;86.40
40920;BME280;26652;50.280;19.026;2023-05-25T01:19:53;98836.66;;;13.77;87.10
40920;BME280;26652;50.280;19.026;2023-05-25T01:22:00;98831.03;;;13.60;86.85
40920;BME280;26652;50.280;19.026;2023-05-25T01:24:29;98847.41;;;13.65;87.73
40920;BME280;26652;50.280;19.026;2023-05-25T01:26:28;98830.03;;;13.54;87.76
40920;BME280;26652;50.280;19.026;2023-05-25T01:28:37;98837.31;;;13.57;88.51
40920;BME280;26652;50.280;19.026;2023-05-25T01:30:42;98824.28;;;13.46;88.25
40920;BME280;26652;50.280;19.026;2023-05-25T01:32:44;98841.44;;;13.52;88.32
40920;BME280;26652;50.280;19.026;2023-05-25T01:34:45;98836.47;;;13.44;88.22
40920;BME280;26652;50.280;19.026;2023-05-25T01:36:48;98828.06;;;13.50;88.38
40920;BME280;26652;50.280;19.026;2023-05-25T01:38:48;98831.41;;;13.50;88.45
40920;BME280;26652;50.280;19.026;2023-05-25T01:40:50;98842.22;;;13.52;88.44
40920;BME280;26652;50.280;19.026;2023-05-25T01:42:51;98841.28;;;13.60;88.34
40920;BME280;26652;50.280;19.026;2023-05-25T01:44:52;98837.94;;;13.59;88.32
40920;BME280;26652;50.280;19.026;2023-05-25T01:46:59;98833.41;;;13.61;88.08
40920;BME280;26652;50.280;19.026;2023-05-25T01:51:24;98859.47;;;13.71;88.08
40920;BME280;26652;50.280;19.026;2023-05-25T01:53:35;98827.09;;;13.57;88.27
40920;BME280;26652;50.280;19.026;2023-05-25T01:55:42;98827.94;;;13.64;88.55
40920;BME280;26652;50.280;19.026;2023-05-25T01:57:52;98823.41;;;13.66;88.18
40920;BME280;26652;50.280;19.026;2023-05-25T01:59:57;98848.09;;;13.81;88.68
40920;BME280;26652;50.280;19.026;2023-05-25T02:02:02;98823.88;;;13.77;88.21
40920;BME280;26652;50.280;19.026;2023-05-25T02:04:04;98824.47;;;13.79;88.26
40920;BME280;26652;50.280;19.026;2023-05-25T02:06:06;98836.53;;;13.85;88.13
40920;BME280;26652;50.280;19.026;2023-05-25T02:08:07;98822.28;;;13.75;87.93
40920;BME280;26652;50.280;19.026;2023-05-25T02:10:08;98820.47;;;13.69;88.03
40920;BME280;26652;50.280;19.026;2023-05-25T02:12:09;98817.13;;;13.69;87.85
40920;BME280;26652;50.280;19.026;2023-05-25T02:14:09;98822.25;;;13.69;88.53
40920;BME280;26652;50.280;19.026;2023-05-25T02:16:10;98831.78;;;13.82;88.17
40920;BME280;26652;50.280;19.026;2023-05-25T02:18:11;98818.72;;;13.70;87.83
40920;BME280;26652;50.280;19.026;2023-05-25T02:20:13;98806.44;;;13.59;88.50
40920;BME280;26652;50.280;19.026;2023-05-25T02:22:14;98839.03;;;13.78;88.24
40920;BME280;26652;50.280;19.026;2023-05-25T02:24:16;98829.78;;;13.77;88.44
40920;BME280;26652;50.280;19.026;2023-05-25T02:26:18;98829.38;;;13.73;88.44
40920;BME280;26652;50.280;19.026;2023-05-25T02:28:19;98834.13;;;13.77;88.43
40920;BME280;26652;50.280;19.026;2023-05-25T02:30:20;98835.78;;;13.91;87.90
40920;BME280;26652;50.280;19.026;2023-05-25T02:32:20;98830.44;;;13.86;87.86
40920;BME280;26652;50.280;19.026;2023-05-25T02:34:21;98837.53;;;13.90;87.64
40920;BME280;26652;50.280;19.026;2023-05-25T02:36:22;98825.69;;;13.83;87.68
40920;BME280;26652;50.280;19.026;2023-05-25T02:38:23;98820.94;;;13.80;87.11
40920;BME280;26652;50.280;19.026;2023-05-25T02:40:24;98825.47;;;13.78;87.39
40920;BME280;26652;50.280;19.026;2023-05-25T02:42:25;98837.47;;;13.77;88.58
40920;BME280;26652;50.280;19.026;2023-05-25T02:44:25;98830.94;;;13.74;88.18
40920;BME280;26652;50.280;19.026;2023-05-25T02:46:26;98829.81;;;13.84;87.65
40920;BME280;26652;50.280;19.026;2023-05-25T02:48:27;98841.88;;;13.90;86.98
40920;BME280;26652;50.280;19.026;2023-05-25T02:50:28;98829.88;;;13.90;87.73
40920;BME280;26652;50.280;19.026;2023-05-25T02:52:28;98830.63;;;13.84;87.32
40920;BME280;26652;50.280;19.026;2023-05-25T02:54:31;98829.41;;;13.80;86.77
40920;BME280;26652;50.280;19.026;2023-05-25T02:56:31;98827.00;;;13.72;87.22
40920;BME280;26652;50.280;19.026;2023-05-25T02:58:32;98832.06;;;13.65;87.15
40920;BME280;26652;50.280;19.026;2023-05-25T03:00:33;98813.50;;;13.50;87.78
40920;BME280;26652;50.280;19.026;2023-05-25T03:02:34;98814.06;;;13.52;87.84
40920;BME280;26652;50.280;19.026;2023-05-25T03:04:34;98822.78;;;13.58;87.83
40920;BME280;26652;50.280;19.026;2023-05-25T03:06:37;98826.53;;;13.62;87.91
40920;BME280;26652;50.280;19.026;2023-05-25T03:08:38;98820.59;;;13.55;88.32
40920;BME280;26652;50.280;19.026;2023-05-25T03:10:39;98831.28;;;13.65;88.25
40920;BME280;26652;50.280;19.026;2023-05-25T03:12:40;98824.44;;;13.72;88.19
40920;BME280;26652;50.280;19.026;2023-05-25T03:14:40;98822.06;;;13.70;88.45
40920;BME280;26652;50.280;19.026;2023-05-25T03:16:41;98823.97;;;13.62;88.33
40920;BME280;26652;50.280;19.026;2023-05-25T03:18:42;98821.00;;;13.58;88.46
40920;BME280;26652;50.280;19.026;2023-05-25T03:20:42;98829.09;;;13.62;87.88
40920;BME280;26652;50.280;19.026;2023-05-25T03:22:43;98832.50;;;13.69;87.72
40920;BME280;26652;50.280;19.026;2023-05-25T03:24:44;98842.38;;;13.79;87.84
40920;BME280;26652;50.280;19.026;2023-05-25T03:26:46;98824.03;;;13.68;87.53
40920;BME280;26652;50.280;19.026;2023-05-25T03:28:46;98824.63;;;13.70;87.59
40920;BME280;26652;50.280;19.026;2023-05-25T03:30:47;98830.38;;;13.79;87.79
40920;BME280;26652;50.280;19.026;2023-05-25T03:32:48;98833.75;;;13.80;87.16
40920;BME280;26652;50.280;19.026;2023-05-25T03:34:49;98823.47;;;13.73;87.43
40920;BME280;26652;50.280;19.026;2023-05-25T03:36:49;98841.19;;;13.74;87.37
40920;BME280;26652;50.280;19.026;2023-05-25T03:38:51;98821.41;;;13.62;87.71
40920;BME280;26652;50.280;19.026;2023-05-25T03:40:52;98836.03;;;13.68;87.57
40920;BME280;26652;50.280;19.026;2023-05-25T03:42:53;98845.88;;;13.71;87.81
40920;BME280;26652;50.280;19.026;2023-05-25T03:44:53;98829.69;;;13.64;88.12
40920;BME280;26652;50.280;19.026;2023-05-25T03:46:54;98836.66;;;13.77;87.87
40920;BME280;26652;50.280;19.026;2023-05-25T03:48:55;98829.94;;;13.69;87.57
40920;BME280;26652;50.280;19.026;2023-05-25T03:50:55;98837.84;;;13.74;87.45
40920;BME280;26652;50.280;19.026;2023-05-25T03:52:56;98831.31;;;13.71;87.74
40920;BME280;26652;50.280;19.026;2023-05-25T03:54:57;98844.34;;;13.77;88.15
40920;BME280;26652;50.280;19.026;2023-05-25T03:56:58;98851.97;;;13.70;88.75
40920;BME280;26652;50.280;19.026;2023-05-25T03:58:59;98845.66;;;13.66;88.97
40920;BME280;26652;50.280;19.026;2023-05-25T04:00:59;98848.81;;;13.68;88.51
40920;BME280;26652;50.280;19.026;2023-05-25T04:03:00;98852.94;;;13.69;89.09
40920;BME280;26652;50.280;19.026;2023-05-25T04:05:01;98847.19;;;13.60;89.12
40920;BME280;26652;50.280;19.026;2023-05-25T04:07:02;98846.03;;;13.63;88.95
40920;BME280;26652;50.280;19.026;2023-05-25T04:09:03;98851.97;;;13.70;88.99
40920;BME280;26652;50.280;19.026;2023-05-25T04:11:04;98859.88;;;13.75;89.01
40920;BME280;26652;50.280;19.026;2023-05-25T04:13:05;98865.31;;;13.65;88.76
40920;BME280;26652;50.280;19.026;2023-05-25T04:15:06;98859.34;;;13.52;89.11
40920;BME280;26652;50.280;19.026;2023-05-25T04:17:08;98860.41;;;13.64;89.45
40920;BME280;26652;50.280;19.026;2023-05-25T04:19:09;98859.66;;;13.70;88.88
40920;BME280;26652;50.280;19.026;2023-05-25T04:21:10;98861.84;;;13.73;88.51
40920;BME280;26652;50.280;19.026;2023-05-25T04:23:11;98868.03;;;13.57;88.49
40920;BME280;26652;50.280;19.026;2023-05-25T04:25:11;98877.31;;;13.65;88.67
40920;BME280;26652;50.280;19.026;2023-05-25T04:27:12;98866.84;;;13.60;89.11
40920;BME280;26652;50.280;19.026;2023-05-25T04:29:16;98865.69;;;13.62;88.51
40920;BME280;26652;50.280;19.026;2023-05-25T04:31:17;98872.66;;;13.75;88.25
40920;BME280;26652;50.280;19.026;2023-05-25T04:33:17;98871.75;;;13.83;88.17
40920;BME280;26652;50.280;19.026;2023-05-25T04:35:18;98868.34;;;13.75;88.09
40920;BME280;26652;50.280;19.026;2023-05-25T04:37:20;98866.72;;;13.68;88.44
40920;BME280;26652;50.280;19.026;2023-05-25T04:39:21;98895.97;;;13.87;88.76
40920;BME280;26652;50.280;19.026;2023-05-25T04:41:21;98874.63;;;13.73;88.42
40920;BME280;26652;50.280;19.026;2023-05-25T04:43:22;98892.78;;;13.78;87.79
40920;BME280;26652;50.280;19.026;2023-05-25T04:45:25;98878.25;;;13.57;88.18
40920;BME280;26652;50.280;19.026;2023-05-25T04:47:27;98872.94;;;13.59;88.43
40920;BME280;26652;50.280;19.026;2023-05-25T04:49:28;98901.78;;;13.74;88.24
40920;BME280;26652;50.280;19.026;2023-05-25T04:51:29;98885.41;;;13.68;88.14
40920;BME280;26652;50.280;19.026;2023-05-25T04:53:29;98896.31;;;13.77;88.29
40920;BME280;26652;50.280;19.026;2023-05-25T04:55:32;98898.81;;;13.70;88.04
40920;BME280;26652;50.280;19.026;2023-05-25T04:57:32;98885.50;;;13.54;88.74
40920;BME280;26652;50.280;19.026;2023-05-25T04:59:33;98876.66;;;13.56;89.08
40920;BME280;26652;50.280;19.026;2023-05-25T05:01:34;98877.19;;;13.45;89.29
40920;BME280;26652;50.280;19.026;2023-05-25T05:03:40;98879.81;;;13.52;89.73
40920;BME280;26652;50.280;19.026;2023-05-25T05:05:40;98890.44;;;13.55;90.48
40920;BME280;26652;50.280;19.026;2023-05-25T05:07:41;98883.97;;;13.59;89.67
40920;BME280;26652;50.280;19.026;2023-05-25T05:09:42;98885.56;;;13.60;88.62
40920;BME280;26652;50.280;19.026;2023-05-25T05:11:43;98911.41;;;13.72;88.46
40920;BME280;26652;50.280;19.026;2023-05-25T05:13:43;98891.31;;;13.69;88.22
40920;BME280;26652;50.280;19.026;2023-05-25T05:15:44;98895.59;;;13.62;88.73
40920;BME280;26652;50.280;19.026;2023-05-25T05:17:45;98887.13;;;13.61;88.21
40920;BME280;26652;50.280;19.026;2023-05-25T05:19:47;98893.47;;;13.65;87.87
40920;BME280;26652;50.280;19.026;2023-05-25T05:21:47;98892.25;;;13.61;88.15
40920;BME280;26652;50.280;19.026;2023-05-25T05:23:48;98906.34;;;13.79;87.51
40920;BME280;26652;50.280;19.026;2023-05-25T05:25:49;98915.53;;;13.94;87.07
40920;BME280;26652;50.280;19.026;2023-05-25T05:27:50;98914.69;;;13.87;87.57
40920;BME280;26652;50.280;19.026;2023-05-25T05:29:50;98900.91;;;13.88;86.65
40920;BME280;26652;50.280;19.026;2023-05-25T05:31:51;98913.59;;;14.03;86.42
40920;BME280;26652;50.280;19.026;2023-05-25T05:33:52;98908.63;;;13.95;85.45
40920;BME280;26652;50.280;19.026;2023-05-25T05:35:53;98917.94;;;14.02;85.77
40920;BME280;26652;50.280;19.026;2023-05-25T05:37:53;98909.44;;;13.95;85.96
40920;BME280;26652;50.280;19.026;2023-05-25T05:39:54;98926.78;;;14.00;86.42
40920;BME280;26652;50.280;19.026;2023-05-25T05:41:55;98908.03;;;13.93;86.29
40920;BME280;26652;50.280;19.026;2023-05-25T05:43:56;98915.78;;;14.06;86.41
40920;BME280;26652;50.280;19.026;2023-05-25T05:45:56;98916.34;;;14.01;86.09
40920;BME280;26652;50.280;19.026;2023-05-25T05:47:57;98923.75;;;13.90;86.15
40920;BME280;26652;50.280;19.026;2023-05-25T05:49:58;98911.34;;;13.87;86.92
40920;BME280;26652;50.280;19.026;2023-05-25T05:51:59;98916.88;;;13.90;87.45
40920;BME280;26652;50.280;19.026;2023-05-25T05:53:59;98917.28;;;13.94;87.76
40920;BME280;26652;50.280;19.026;2023-05-25T05:56:01;98930.13;;;14.00;87.64
40920;BME280;26652;50.280;19.026;2023-05-25T05:58:02;98927.94;;;13.97;87.62
40920;BME280;26652;50.280;19.026;2023-05-25T06:00:03;98926.38;;;13.96;88.08
40920;BME280;26652;50.280;19.026;2023-05-25T06:02:06;98922.03;;;13.97;87.40
40920;BME280;26652;50.280;19.026;2023-05-25T06:04:07;98925.66;;;14.09;87.63
40920;BME280;26652;50.280;19.026;2023-05-25T06:06:08;98928.03;;;14.11;87.02
40920;BME280;26652;50.280;19.026;2023-05-25T06:08:09;98946.75;;;14.11;87.49
40920;BME280;26652;50.280;19.026;2023-05-25T06:10:11;98940.94;;;13.96;87.56
40920;BME280;26652;50.280;19.026;2023-05-25T06:12:12;98943.03;;;13.86;88.01
40920;BME280;26652;50.280;19.026;2023-05-25T06:14:12;98935.34;;;13.86;88.34
40920;BME280;26652;50.280;19.026;2023-05-25T06:16:13;98947.59;;;13.90;88.48
40920;BME280;26652;50.280;19.026;2023-05-25T06:18:14;98946.97;;;13.88;88.48
40920;BME280;26652;50.280;19.026;2023-05-25T06:20:15;98944.19;;;13.83;89.41
40920;BME280;26652;50.280;19.026;2023-05-25T06:22:15;98949.81;;;13.72;90.16
40920;BME280;26652;50.280;19.026;2023-05-25T06:24:16;98951.63;;;13.78;90.98
40920;BME280;26652;50.280;19.026;2023-05-25T06:26:17;98949.91;;;13.85;89.37
40920;BME280;26652;50.280;19.026;2023-05-25T06:28:18;98961.03;;;13.99;89.30
40920;BME280;26652;50.280;19.026;2023-05-25T06:30:18;98954.41;;;13.83;89.43
40920;BME280;26652;50.280;19.026;2023-05-25T06:32:19;98948.56;;;13.89;89.15
40920;BME280;26652;50.280;19.026;2023-05-25T06:34:20;98949.84;;;13.79;89.25
40920;BME280;26652;50.280;19.026;2023-05-25T06:36:21;98960.13;;;13.85;89.85
40920;BME280;26652;50.280;19.026;2023-05-25T06:38:21;98945.56;;;13.86;90.36
40920;BME280;26652;50.280;19.026;2023-05-25T06:40:25;98954.78;;;13.80;89.83
40920;BME280;26652;50.280;19.026;2023-05-25T06:42:25;98952.34;;;13.72;89.64
40920;BME280;26652;50.280;19.026;2023-05-25T06:44:26;98958.69;;;13.76;89.85
40920;BME280;26652;50.280;19.026;2023-05-25T06:46:27;98961.13;;;13.84;89.60
40920;BME280;26652;50.280;19.026;2023-05-25T06:48:28;98962.22;;;13.75;88.35
40920;BME280;26652;50.280;19.026;2023-05-25T06:50:28;98959.84;;;13.73;88.86
40920;BME280;26652;50.280;19.026;2023-05-25T06:52:29;98966.13;;;13.71;88.44
40920;BME280;26652;50.280;19.026;2023-05-25T06:54:30;98965.94;;;13.72;89.13
40920;BME280;26652;50.280;19.026;2023-05-25T06:56:32;98956.06;;;13.69;89.18
40920;BME280;26652;50.280;19.026;2023-05-25T06:58:33;98957.00;;;13.62;89.53
40920;BME280;26652;50.280;19.026;2023-05-25T07:00:34;98961.31;;;13.61;89.82
40920;BME280;26652;50.280;19.026;2023-05-25T07:02:34;98966.50;;;13.68;89.91
40920;BME280;26652;50.280;19.026;2023-05-25T07:04:35;98975.06;;;13.82;89.54
40920;BME280;26652;50.280;19.026;2023-05-25T07:06:36;98979.03;;;13.84;89.36
40920;BME280;26652;50.280;19.026;2023-05-25T07:08:37;98976.41;;;13.78;89.42
40920;BME280;26652;50.280;19.026;2023-05-25T07:10:38;98976.47;;;13.63;89.96
40920;BME280;26652;50.280;19.026;2023-05-25T07:12:38;98973.31;;;13.61;90.65
40920;BME280;26652;50.280;19.026;2023-05-25T07:14:39;98964.84;;;13.60;91.05
40920;BME280;26652;50.280;19.026;2023-05-25T07:16:40;98978.31;;;13.69;91.26
40920;BME280;26652;50.280;19.026;2023-05-25T07:18:41;98963.09;;;13.61;90.52
40920;BME280;26652;50.280;19.026;2023-05-25T07:20:42;98979.09;;;13.69;90.72
40920;BME280;26652;50.280;19.026;2023-05-25T07:22:42;98972.94;;;13.64;90.16
40920;BME280;26652;50.280;19.026;2023-05-25T07:24:46;98975.56;;;13.70;90.90
40920;BME280;26652;50.280;19.026;2023-05-25T07:26:46;98974.03;;;13.76;89.98
40920;BME280;26652;50.280;19.026;2023-05-25T07:28:49;99002.13;;;13.91;89.38
40920;BME280;26652;50.280;19.026;2023-05-25T07:30:49;98982.94;;;13.80;89.10
40920;BME280;26652;50.280;19.026;2023-05-25T07:32:50;98988.72;;;13.89;88.75
40920;BME280;26652;50.280;19.026;2023-05-25T07:34:51;98981.53;;;13.78;89.53
40920;BME280;26652;50.280;19.026;2023-05-25T07:36:52;98994.63;;;13.89;88.91
40920;BME280;26652;50.280;19.026;2023-05-25T07:38:52;98998.75;;;13.90;88.78
40920;BME280;26652;50.280;19.026;2023-05-25T07:40:53;98986.34;;;13.87;88.68
40920;BME280;26652;50.280;19.026;2023-05-25T07:42:54;98987.25;;;13.80;88.62
40920;BME280;26652;50.280;19.026;2023-05-25T07:44:55;98991.63;;;13.86;88.87
40920;BME280;26652;50.280;19.026;2023-05-25T07:46:55;98979.88;;;13.91;88.51
40920;BME280;26652;50.280;19.026;2023-05-25T07:48:56;98980.84;;;13.90;89.08
40920;BME280;26652;50.280;19.026;2023-05-25T07:50:58;98995.97;;;13.85;90.33
40920;BME280;26652;50.280;19.026;2023-05-25T07:52:59;98987.31;;;13.86;89.48
40920;BME280;26652;50.280;19.026;2023-05-25T07:55:00;98986.69;;;13.84;88.96
40920;BME280;26652;50.280;19.026;2023-05-25T07:57:01;99000.72;;;13.88;88.04
40920;BME280;26652;50.280;19.026;2023-05-25T07:59:02;98994.19;;;13.86;88.54
40920;BME280;26652;50.280;19.026;2023-05-25T08:01:03;99001.13;;;13.92;87.76
40920;BME280;26652;50.280;19.026;2023-05-25T08:03:04;98998.81;;;13.97;87.38
40920;BME280;26652;50.280;19.026;2023-05-25T08:05:05;99000.63;;;14.03;87.85
40920;BME280;26652;50.280;19.026;2023-05-25T08:07:06;98997.28;;;14.02;86.72
40920;BME280;26652;50.280;19.026;2023-05-25T08:09:07;98999.66;;;14.04;87.78
40920;BME280;26652;50.280;19.026;2023-05-25T08:11:07;99000.94;;;14.15;87.63
40920;BME280;26652;50.280;19.026;2023-05-25T08:13:09;98995.16;;;14.06;87.03
40920;BME280;26652;50.280;19.026;2023-05-25T08:15:09;98984.91;;;14.06;87.80
40920;BME280;26652;50.280;19.026;2023-05-25T08:17:10;98997.00;;;14.19;86.98
40920;BME280;26652;50.280;19.026;2023-05-25T08:19:11;99005.69;;;14.18;86.83
40920;BME280;26652;50.280;19.026;2023-05-25T08:21:12;98990.88;;;14.13;87.01
40920;BME280;26652;50.280;19.026;2023-05-25T08:23:13;98989.66;;;14.09;87.80
40920;BME280;26652;50.280;19.026;2023-05-25T08:25:14;98984.53;;;14.09;87.18
40920;BME280;26652;50.280;19.026;2023-05-25T08:27:15;98992.50;;;14.21;87.78
40920;BME280;26652;50.280;19.026;2023-05-25T08:29:17;98998.22;;;14.23;87.10
40920;BME280;26652;50.280;19.026;2023-05-25T08:31:17;98997.75;;;14.13;87.42
40920;BME280;26652;50.280;19.026;2023-05-25T08:33:18;98983.28;;;13.98;88.42
40920;BME280;26652;50.280;19.026;2023-05-25T08:35:19;98990.72;;;14.21;87.11
40920;BME280;26652;50.280;19.026;2023-05-25T08:37:20;98989.53;;;14.17;88.78
40920;BME280;26652;50.280;19.026;2023-05-25T08:39:22;98988.03;;;14.29;86.69
40920;BME280;26652;50.280;19.026;2023-05-25T08:41:23;99000.69;;;14.37;86.51
40920;BME280;26652;50.280;19.026;2023-05-25T08:43:24;99002.53;;;14.44;86.92
40920;BME280;26652;50.280;19.026;2023-05-25T08:45:25;98998.69;;;14.33;85.98
40920;BME280;26652;50.280;19.026;2023-05-25T08:47:29;98996.91;;;14.33;86.54
40920;BME280;26652;50.280;19.026;2023-05-25T08:49:38;99009.47;;;14.50;86.17
40920;BME280;26652;50.280;19.026;2023-05-25T08:51:44;99003.75;;;14.48;86.44
40920;BME280;26652;50.280;19.026;2023-05-25T08:53:47;99000.44;;;14.54;86.19
40920;BME280;26652;50.280;19.026;2023-05-25T08:55:52;99002.34;;;14.45;85.70
40920;BME280;26652;50.280;19.026;2023-05-25T08:57:59;99013.28;;;14.67;85.71
40920;BME280;26652;50.280;19.026;2023-05-25T09:00:06;98997.25;;;14.52;85.34
40920;BME280;26652;50.280;19.026;2023-05-25T09:02:34;99015.63;;;14.34;86.34
40920;BME280;26652;50.280;19.026;2023-05-25T09:04:39;98996.41;;;14.17;86.82
40920;BME280;26652;50.280;19.026;2023-05-25T09:06:41;99003.22;;;14.31;86.47
40920;BME280;26652;50.280;19.026;2023-05-25T09:08:43;98995.72;;;14.29;86.95
40920;BME280;26652;50.280;19.026;2023-05-25T09:10:44;98992.72;;;14.26;86.50
40920;BME280;26652;50.280;19.026;2023-05-25T09:12:46;98993.56;;;14.33;87.92
40920;BME280;26652;50.280;19.026;2023-05-25T09:14:48;98987.75;;;14.18;86.44
40920;BME280;26652;50.280;19.026;2023-05-25T09:16:49;98996.50;;;14.02;86.90
40920;BME280;26652;50.280;19.026;2023-05-25T09:18:50;98998.44;;;14.00;88.02
40920;BME280;26652;50.280;19.026;2023-05-25T09:20:51;99005.16;;;14.01;88.18
40920;BME280;26652;50.280;19.026;2023-05-25T09:22:52;98992.91;;;14.24;88.14
40920;BME280;26652;50.280;19.026;2023-05-25T09:24:53;99002.66;;;14.35;87.16
40920;BME280;26652;50.280;19.026;2023-05-25T09:26:54;98998.84;;;14.53;86.81
40920;BME280;26652;50.280;19.026;2023-05-25T09:28:55;99017.91;;;14.85;85.79
40920;BME280;26652;50.280;19.026;2023-05-25T09:30:56;99006.84;;;14.78;86.47
40920;BME280;26652;50.280;19.026;2023-05-25T09:33:08;99008.84;;;14.89;84.79
40920;BME280;26652;50.280;19.026;2023-05-25T09:35:12;99010.81;;;14.87;84.56
40920;BME280;26652;50.280;19.026;2023-05-25T09:37:15;99010.66;;;14.95;85.12
40920;BME280;26652;50.280;19.026;2023-05-25T09:39:16;99011.94;;;14.71;85.52
40920;BME280;26652;50.280;19.026;2023-05-25T09:41:17;99016.97;;;14.58;85.63
40920;BME280;26652;50.280;19.026;2023-05-25T09:43:18;99007.31;;;14.53;85.96
40920;BME280;26652;50.280;19.026;2023-05-25T09:45:19;99002.78;;;14.27;86.44
40920;BME280;26652;50.280;19.026;2023-05-25T09:47:20;98999.25;;;14.28;87.08
40920;BME280;26652;50.280;19.026;2023-05-25T09:49:20;99006.50;;;14.25;87.15
40920;BME280;26652;50.280;19.026;2023-05-25T09:51:21;99025.94;;;14.40;88.28
40920;BME280;26652;50.280;19.026;2023-05-25T09:53:22;99008.31;;;14.52;88.84
40920;BME280;26652;50.280;19.026;2023-05-25T09:55:22;99003.19;;;14.59;87.85
40920;BME280;26652;50.280;19.026;2023-05-25T09:57:23;99009.69;;;14.61;86.50
40920;BME280;26652;50.280;19.026;2023-05-25T09:59:24;98999.53;;;14.75;86.86
40920;BME280;26652;50.280;19.026;2023-05-25T10:01:24;99004.47;;;14.76;86.38
40920;BME280;26652;50.280;19.026;2023-05-25T10:03:26;99002.09;;;14.75;85.77
40920;BME280;26652;50.280;19.026;2023-05-25T10:05:27;99001.53;;;14.86;85.36
40920;BME280;26652;50.280;19.026;2023-05-25T10:07:29;99000.59;;;14.93;85.12
40920;BME280;26652;50.280;19.026;2023-05-25T10:09:30;99002.63;;;15.11;85.05
40920;BME280;26652;50.280;19.026;2023-05-25T10:11:37;99018.50;;;15.34;83.10
40920;BME280;26652;50.280;19.026;2023-05-25T10:13:39;99000.53;;;15.28;82.53
40920;BME280;26652;50.280;19.026;2023-05-25T10:15:44;98997.31;;;15.13;82.66
40920;BME280;26652;50.280;19.026;2023-05-25T10:17:52;99001.13;;;15.30;82.69
40920;BME280;26652;50.280;19.026;2023-05-25T10:20:00;98998.97;;;15.33;82.15
40920;BME280;26652;50.280;19.026;2023-05-25T10:22:12;99015.78;;;15.49;81.59
40920;BME280;26652;50.280;19.026;2023-05-25T10:24:29;99001.53;;;15.40;81.38
40920;BME280;26652;50.280;19.026;2023-05-25T10:26:38;99010.25;;;15.52;81.20
40920;BME280;26652;50.280;19.026;2023-05-25T10:28:42;99008.63;;;15.38;80.82
40920;BME280;26652;50.280;19.026;2023-05-25T10:30:44;99006.47;;;15.35;81.34
40920;BME280;26652;50.280;19.026;2023-05-25T10:32:45;99020.31;;;15.54;81.84
40920;BME280;26652;50.280;19.026;2023-05-25T10:34:47;99014.59;;;15.52;80.80
40920;BME280;26652;50.280;19.026;2023-05-25T10:36:51;99015.00;;;15.55;80.25
40920;BME280;26652;50.280;19.026;2023-05-25T10:38:54;99024.28;;;15.56;81.65